Gol B738 at Maringa on Nov 17th 2021, temporary runway excursion on landing

Last Update: November 19, 2021 / 19:02:20 GMT/Zulu time

Bookmark this article
Incident Facts

Date of incident
Nov 17, 2021

Classification
Incident

Flight number
G3-1108

Destination
Maringa, Brazil

Aircraft Registration
PR-GXH

Aircraft Type
Boeing 737-800

ICAO Type Designator
B738

Airport ICAO Code
SBMG

A Gol Transportes Aereos Boeing 737-800, registration PR-GXH performing flight G3-1108 from Sao Paulo Guarulhos,SP to Maringa,PR (Brazil) with 105 passengers and 6 crew, landed on Maringa's runway 28 at 23:35L (02:35Z Nov 18th) but in the flare began to veer right and touched down on the right hand runway edge before the aircraft returned onto the runway center line. The aircraft rolled out without further incident and taxied to the apron. There were no injuries, the aircraft sustained minor damage.

The aircraft sustained damage to both right hand main tyres, damage to the lower fuselage is being assessed.

The airline reported one of the wheels destroyed a number of runway edge lights.

On Nov 19th 2021 Brazil's CENIPA reported the aircraft reached the right lateral limit of the runway and collided with runway edge lights. The aircraft received minor damage, the occurrence was rated a serious incident and is being investigated by CENIPA.

Metars:
SBMG 180500Z 09003KT 9999 SCT020 BKN090 21/20 Q1010=
SBMG 180300Z 35001KT 8000 -RA BKN020 BKN100 21/20 Q1011 RERA=
SBMG 180200Z 15005KT 9999 VCTS FEW030 FEW030CB BKN100 21/20 Q1011=
SBMG 180100Z 16007KT 9999 VCTS FEW003 FEW030CB SCT100 21/20 Q1010=
SBMG 180000Z 15005KT 9999 FEW030 SCT100 22/21 Q1010=
SBMG 172300Z 07006KT 9999 SCT030 SCT100 23/21 Q1010 RETS=
SBMG 172200Z 12005KT 9999 TS SCT030 FEW040CB BKN100 23/21 Q1009=
Incident Facts

Date of incident
Nov 17, 2021

Classification
Incident

Flight number
G3-1108

Destination
Maringa, Brazil

Aircraft Registration
PR-GXH

Aircraft Type
Boeing 737-800

ICAO Type Designator
B738

Airport ICAO Code
SBMG

This article is published under license from Avherald.com. © of text by Avherald.com.
Article source

You can read 4 more free articles without a subscription.

Subscribe now and continue reading without any limits!

Are you a subscriber?
Login
Subscribe

Read unlimited articles and receive our daily update briefing. Gain better insights into what is happening in commercial aviation safety.

Free newsletter

Want to know more and stay ahead? Get our free weekly newsletter and join 4855 existing subscribers.

By subscribing, you accept our terms and conditions and confirm that you've read our privacy policy.

Send tip

Support AeroInside by sending a small tip amount.

Related articles

Newest articles

Subscribe today

Are you researching aviation incidents? Get access to AeroInside Insights, unlimited read access and receive the daily newsletter.

Pick your plan and subscribe

Partner

Blockaviation logo

A new way to document and demonstrate airworthiness compliance and aircraft value. Find out more.

Virtual Speech logo

Train yourself online in VR with the special course for aviation: "Crisis Communications: Airlines". Find out more.

Get updates

Never miss an article from AeroInside. Subscribe to our free weekly newsletter and join 4855 existing subscribers.

By subscribing, you accept our terms and conditions and that you've read our privacy policy.

AeroInside Blog
Popular aircraft
Airbus A320
Boeing 737-800
Boeing 737-800 MAX
Popular airlines
American Airlines
United
Delta
Air Canada
Lufthansa
British Airways